Time;durP1;ratioP1;P1;durP2;ratioP2;P2;SDS_P1;SDS_P2;PMS_P1;PMS_P2;Temp;Humidity;BMP_temperature;BMP_pressure;BME280_temperature;BME280_humidity;BME280_pressure;Samples;Min_cycle;Max_cycle;Signal;HPM_P1;HPM_P2
2023/01/11 00:01:03;;;;;;;;;1.67;1.00;;;;;11.80;60.85;100929.63;5000018;28;45715;-71
2023/01/11 00:03:29;;;;;;;;;1.00;0.67;;;;;11.84;60.68;100936.78;4999571;28;45499;-71
2023/01/11 00:05:57;;;;;;;;;5.00;5.00;;;;;11.94;60.40;100931.00;4999261;28;46117;-70
2023/01/11 00:08:23;;;;;;;;;3.50;3.00;;;;;12.03;60.22;100918.16;4999453;28;45332;-72
2023/01/11 00:10:49;;;;;;;;;4.00;3.75;;;;;12.14;59.42;100916.78;4999956;28;45281;-71
2023/01/11 00:13:15;;;;;;;;;3.25;3.00;;;;;12.17;59.43;100921.19;5000526;28;45480;-71
2023/01/11 00:15:41;;;;;;;;;2.25;2.00;;;;;12.09;59.48;100907.88;4999699;28;46266;-71
2023/01/11 00:18:08;;;;;;;;;4.00;3.67;;;;;11.96;59.44;100876.97;4999827;28;45249;-70
2023/01/11 00:20:33;;;;;;;;;3.00;2.67;;;;;12.21;59.38;100915.22;4999859;28;45378;-71
2023/01/11 00:22:59;;;;;;;;;7.50;7.00;;;;;12.24;59.46;100914.44;4999850;28;45513;-71
2023/01/11 00:25:25;;;;;;;;;1.00;1.00;;;;;12.30;59.49;100914.59;4999543;28;46146;-71
2023/01/11 00:27:50;;;;;;;;;2.67;2.33;;;;;12.31;59.41;100918.97;4999748;28;45439;-71
2023/01/11 00:30:17;;;;;;;;;0.33;0.33;;;;;12.25;59.02;100897.84;5000012;28;45421;-71
2023/01/11 00:32:42;;;;;;;;;1.67;1.67;;;;;12.43;59.12;100915.81;4999953;28;45447;-71
2023/01/11 00:35:08;;;;;;;;;4.33;3.00;;;;;12.44;59.06;100922.88;4999044;28;45558;-70
2023/01/11 00:37:34;;;;;;;;;2.00;2.00;;;;;12.45;58.90;100922.88;4999049;28;45426;-71
2023/01/11 00:40:00;;;;;;;;;2.00;1.67;;;;;12.52;58.83;100918.72;4999532;28;45410;-71
2023/01/11 00:47:56;;;;;;;;;2.00;2.00;;;;;12.48;58.98;100917.75;4999293;28;45260;-71
2023/01/11 00:50:22;;;;;;;;;2.00;1.67;;;;;12.34;58.94;100891.16;4999531;28;45344;-70
2023/01/11 00:52:48;;;;;;;;;1.00;1.00;;;;;12.58;58.76;100929.38;4999950;28;45470;-71
2023/01/11 00:55:13;;;;;;;;;3.50;3.50;;;;;12.62;58.99;100936.47;4999226;28;45775;-71
2023/01/11 00:57:39;;;;;;;;;2.33;2.00;;;;;12.67;58.46;100934.88;4999108;28;45315;-72
2023/01/11 01:00:07;;;;;;;;;1.33;1.00;;;;;12.69;58.34;100921.78;4999238;28;45233;-71
2023/01/11 01:02:33;;;;;;;;;3.00;2.33;;;;;12.73;58.75;100939.38;4999317;28;45453;-70
2023/01/11 01:04:59;;;;;;;;;3.33;3.00;;;;;12.69;58.52;100937.50;4998680;28;46163;-71
2023/01/11 01:07:24;;;;;;;;;3.67;3.33;;;;;12.71;58.38;100931.50;4999113;28;45526;-71
2023/01/11 01:09:50;;;;;;;;;4.50;4.00;;;;;12.69;58.53;100937.50;4999481;28;45255;-70
2023/01/11 01:15:00;;;;;;;;;4.00;3.00;;;;;12.54;58.20;100891.69;4998722;28;45438;-71
2023/01/11 01:17:26;;;;;;;;;3.00;3.00;;;;;12.85;58.07;100923.09;4998643;28;45608;-71
2023/01/11 01:19:54;;;;;;;;;1.67;1.00;;;;;12.90;58.08;100930.25;4999185;28;45533;-71
2023/01/11 01:22:20;;;;;;;;;2.00;2.00;;;;;12.87;58.53;100932.78;4999368;28;45514;-70
2023/01/11 01:24:45;;;;;;;;;4.67;3.67;;;;;12.85;58.49;100924.00;4998636;28;45947;-71
2023/01/11 01:27:16;;;;;;;;;2.00;2.00;;;;;12.86;58.13;100931.00;4998949;28;45336;-70
2023/01/11 01:29:42;;;;;;;;;4.00;4.00;;;;;12.86;58.08;100924.88;4997545;28;45513;-71
2023/01/11 01:32:09;;;;;;;;;2.00;1.00;;;;;12.86;58.37;100930.13;4998648;28;45474;-70
2023/01/11 01:34:38;;;;;;;;;1.00;0.00;;;;;12.81;58.60;100924.78;4998471;28;45450;-71
2023/01/11 01:37:06;;;;;;;;;3.00;3.00;;;;;12.69;58.94;100904.34;4998396;28;45508;-71
2023/01/11 01:39:31;;;;;;;;;3.00;3.00;;;;;12.74;58.74;100923.69;4998525;28;45617;-71
2023/01/11 01:41:58;;;;;;;;;1.00;1.00;;;;;12.78;58.58;100916.81;4998411;28;45306;-71
2023/01/11 01:44:57;;;;;;;;;0.00;0.00;;;;;12.78;58.74;100919.44;4998649;28;46038;-71
2023/01/11 01:47:35;;;;;;;;;1.00;1.00;;;;;12.80;58.82;100914.22;4998379;28;45422;-70
2023/01/11 01:50:07;;;;;;;;;2.67;2.00;;;;;12.80;58.88;100911.63;4998571;28;45454;-71
2023/01/11 01:52:34;;;;;;;;;1.33;1.00;;;;;12.74;58.92;100922.81;4998608;28;45244;-71
2023/01/11 01:55:09;;;;;;;;;1.00;1.00;;;;;12.79;58.81;100915.06;4997976;28;46050;-71
2023/01/11 01:57:38;;;;;;;;;1.00;1.00;;;;;12.79;58.96;100910.69;4998315;28;45388;-70
2023/01/11 02:00:07;;;;;;;;;2.00;2.00;;;;;12.80;58.99;100912.50;4998353;28;45442;-71
2023/01/11 02:02:35;;;;;;;;;0.00;0.00;;;;;12.78;59.06;100915.94;4997095;28;45271;-71
2023/01/11 02:05:02;;;;;;;;;1.00;0.00;;;;;12.74;59.45;100914.94;4998150;28;45431;-71
2023/01/11 02:07:31;;;;;;;;;1.00;1.00;;;;;12.72;59.36;100917.53;4998029;28;45482;-70
2023/01/11 02:10:17;;;;;;;;;1.00;0.00;;;;;12.69;59.29;100914.84;4998208;28;45345;-70
2023/01/11 02:13:01;;;;;;;;;0.00;0.00;;;;;12.65;59.65;100906.81;4998360;28;45316;-71
2023/01/11 02:15:28;;;;;;;;;1.00;0.00;;;;;12.64;59.74;100907.69;4998013;28;46094;-71
2023/01/11 02:17:53;;;;;;;;;2.67;2.33;;;;;12.66;59.55;100908.63;4998015;28;45455;-71
2023/01/11 02:20:31;;;;;;;;;0.00;0.00;;;;;12.62;60.02;100919.88;4997992;28;45268;-71
2023/01/11 02:23:24;;;;;;;;;0.00;0.00;;;;;12.55;60.13;100921.41;4998205;28;45461;-70
2023/01/11 02:25:49;;;;;;;;;0.67;0.67;;;;;12.61;60.02;100915.44;4997813;28;46109;-71
2023/01/11 02:28:37;;;;;;;;;1.00;1.00;;;;;12.64;59.72;100918.19;4997681;28;45352;-71
2023/01/11 02:31:21;;;;;;;;;1.00;1.00;;;;;12.60;60.10;100921.56;4997868;28;45490;-71
2023/01/11 02:33:53;;;;;;;;;0.33;0.33;;;;;12.62;59.77;100926.00;4998185;28;45471;-70
2023/01/11 02:36:57;;;;;;;;;0.00;0.00;;;;;12.51;59.80;100901.22;4997616;28;46289;-71
2023/01/11 02:39:56;;;;;;;;;0.67;0.67;;;;;12.59;60.26;100919.75;4997785;28;45360;-71
2023/01/11 02:45:30;;;;;;;;;0.00;0.00;;;;;12.59;60.05;100897.06;4997410;28;45380;-71
2023/01/11 02:48:01;;;;;;;;;0.00;0.00;;;;;12.55;60.27;100889.97;4997678;28;45633;-72
2023/01/11 02:50:28;;;;;;;;;0.00;0.00;;;;;12.35;60.13;100857.97;4997853;28;45451;-71
2023/01/11 02:53:25;;;;;;;;;0.00;0.00;;;;;12.44;60.76;100884.44;4997956;28;45501;-71
2023/01/11 02:55:57;;;;;;;;;0.00;0.00;;;;;12.38;61.08;100886.88;4997633;28;45510;-70
2023/01/11 02:58:28;;;;;;;;;0.00;0.00;;;;;12.35;61.01;100886.78;4997075;28;46579;-70
2023/01/11 03:00:57;;;;;;;;;0.00;0.00;;;;;12.33;60.94;100880.63;4997483;28;45594;-70
2023/01/11 03:03:26;;;;;;;;;0.00;0.00;;;;;12.32;61.00;100881.47;4997385;28;45253;-71
2023/01/11 03:05:57;;;;;;;;;0.00;0.00;;;;;12.43;60.81;100869.53;4996218;28;45530;-70
2023/01/11 03:09:00;;;;;;;;;0.00;0.00;;;;;12.52;60.69;100861.06;4997257;28;46138;-71
2023/01/11 03:14:35;;;;;;;;;0.00;0.00;;;;;12.51;60.34;100854.94;4997714;28;45336;-72
2023/01/11 03:17:21;;;;;;;;;0.33;0.00;;;;;12.45;60.60;100846.91;4997511;28;45451;-70
2023/01/11 03:19:52;;;;;;;;;0.00;0.00;;;;;12.44;60.79;100845.13;4997085;28;45422;-70
2023/01/11 03:22:48;;;;;;;;;0.00;0.00;;;;;12.51;60.88;100843.56;4995751;28;45339;-70
2023/01/11 03:26:08;;;;;;;;;0.00;0.00;;;;;12.70;60.11;100827.47;4997156;28;45770;-70
2023/01/11 03:29:03;;;;;;;;;0.00;0.00;;;;;12.80;59.99;100828.59;4996879;28;45451;-70
2023/01/11 03:31:44;;;;;;;;;0.00;0.00;;;;;12.78;59.81;100830.28;4997148;28;45369;-71
2023/01/11 03:34:10;;;;;;;;;0.00;0.00;;;;;12.69;60.11;100822.19;4997059;28;45324;-70
2023/01/11 03:36:42;;;;;;;;;0.33;0.00;;;;;12.55;60.45;100813.97;4997115;28;45463;-70
2023/01/11 03:39:16;;;;;;;;;0.00;0.00;;;;;12.62;60.43;100830.75;4997260;28;45265;-70
2023/01/11 03:41:43;;;;;;;;;0.00;0.00;;;;;12.49;60.72;100788.50;4996762;28;45974;-70
2023/01/11 03:44:13;;;;;;;;;1.00;0.00;;;;;12.58;60.88;100810.56;4996691;28;45368;-70
2023/01/11 03:46:45;;;;;;;;;0.00;0.00;;;;;12.47;60.93;100781.44;4996912;28;45340;-70
2023/01/11 03:49:18;;;;;;;;;0.00;0.00;;;;;12.69;60.88;100820.47;4997014;28;45245;-70
2023/01/11 03:51:46;;;;;;;;;0.00;0.00;;;;;12.70;60.46;100819.63;4996481;28;45983;-70
2023/01/11 03:54:21;;;;;;;;;0.00;0.00;;;;;12.73;60.82;100824.03;4996499;28;45416;-70
2023/01/11 03:57:05;;;;;;;;;0.00;0.00;;;;;12.78;60.56;100830.28;4996490;28;45452;-70
2023/01/11 03:59:31;;;;;;;;;0.00;0.00;;;;;12.88;60.66;100828.78;4997216;28;45396;-73
2023/01/11 04:01:58;;;;;;;;;0.33;0.00;;;;;12.91;60.13;100827.16;4996920;28;46151;-72
2023/01/11 04:04:24;;;;;;;;;1.00;1.00;;;;;12.94;60.27;100828.94;4996531;28;45423;-70
2023/01/11 04:06:49;;;;;;;;;0.00;0.00;;;;;12.98;59.94;100828.16;4996575;28;45506;-69
2023/01/11 04:09:15;;;;;;;;;0.00;0.00;;;;;12.99;59.89;100832.59;4996874;28;45594;-71
2023/01/11 04:11:40;;;;;;;;;0.67;0.67;;;;;12.93;59.70;100820.19;4996771;28;45308;-71
2023/01/11 04:14:06;;;;;;;;;0.00;0.00;;;;;13.04;59.42;100835.31;4999925;28;45434;-72
2023/01/11 04:16:31;;;;;;;;;0.67;0.00;;;;;13.09;59.61;100837.19;5000269;28;45479;-71
2023/01/11 04:18:57;;;;;;;;;1.00;1.00;;;;;12.94;59.36;100803.59;5000167;28;45493;-71
2023/01/11 04:21:22;;;;;;;;;0.00;0.00;;;;;13.23;59.30;100831.38;4999622;28;45942;-71
2023/01/11 04:23:48;;;;;;;;;1.00;0.00;;;;;13.35;58.83;100833.44;4999644;28;45394;-71
2023/01/11 04:26:16;;;;;;;;;0.00;0.00;;;;;13.42;58.50;100825.75;4999758;28;45344;-72
2023/01/11 04:28:44;;;;;;;;;0.00;0.00;;;;;13.44;58.83;100825.78;4999955;28;45307;-71
2023/01/11 04:31:10;;;;;;;;;0.00;0.00;;;;;13.48;58.57;100838.13;4999414;28;45585;-71
2023/01/11 04:33:35;;;;;;;;;0.00;0.00;;;;;13.52;58.60;100834.72;4999475;28;45496;-71
2023/01/11 04:36:06;;;;;;;;;1.00;1.00;;;;;13.60;58.29;100833.16;4999882;28;45436;-72
2023/01/11 04:38:32;;;;;;;;;0.00;0.00;;;;;13.66;58.00;100843.78;5000344;28;45423;-71
2023/01/11 04:42:17;;;;;;;;;1.00;1.00;;;;;13.50;58.16;100825.91;4999240;28;45512;-71
2023/01/11 04:43:43;;;;;;;;;0.00;0.00;;;;;13.68;58.28;100846.44;4999248;28;45380;-72
2023/01/11 04:46:09;;;;;;;;;0.00;0.00;;;;;13.66;58.37;100835.91;4999721;28;45294;-71
2023/01/11 04:48:38;;;;;;;;;0.00;0.00;;;;;13.64;58.30;100845.47;4999769;28;45594;-71
2023/01/11 04:51:05;;;;;;;;;0.00;0.00;;;;;13.63;58.21;100845.47;4999460;28;46206;-71
2023/01/11 04:53:30;;;;;;;;;0.00;0.00;;;;;13.70;57.84;100842.13;4999606;28;45478;-72
2023/01/11 04:55:59;;;;;;;;;0.33;0.00;;;;;13.71;58.18;100855.28;4999279;28;45481;-71
2023/01/11 04:58:25;;;;;;;;;0.00;0.00;;;;;13.73;57.92;100866.69;4999611;28;45405;-72
2023/01/11 05:00:50;;;;;;;;;0.00;0.00;;;;;13.78;58.26;100866.78;4998863;28;45405;-72
2023/01/11 05:03:16;;;;;;;;;0.00;0.00;;;;;13.79;57.96;100879.09;4999042;28;45593;-71
2023/01/11 05:05:41;;;;;;;;;0.00;0.00;;;;;13.81;58.04;100880.00;4999170;28;45320;-72
2023/01/11 05:08:07;;;;;;;;;0.00;0.00;;;;;13.85;58.03;100876.59;4999401;28;45286;-71
2023/01/11 05:10:32;;;;;;;;;0.00;0.00;;;;;13.87;58.09;100887.13;4999322;28;46255;-71
2023/01/11 05:12:58;;;;;;;;;0.00;0.00;;;;;13.89;57.87;100883.69;4998897;28;45363;-71
2023/01/11 05:15:23;;;;;;;;;0.00;0.00;;;;;13.93;57.47;100889.91;4999335;28;45473;-71
2023/01/11 05:17:49;;;;;;;;;0.00;0.00;;;;;13.96;57.70;100897.81;4999371;28;45287;-72
2023/01/11 05:20:14;;;;;;;;;0.00;0.00;;;;;13.99;57.49;100903.16;4999050;28;45800;-71
2023/01/11 05:22:40;;;;;;;;;0.33;0.33;;;;;13.88;57.53;100895.03;4998911;28;45431;-71
2023/01/11 05:25:06;;;;;;;;;0.00;0.00;;;;;14.01;57.68;100914.59;4999336;28;45348;-71
2023/01/11 05:27:32;;;;;;;;;0.00;0.00;;;;;13.72;57.67;100877.16;4998906;28;45396;-70
2023/01/11 05:29:57;;;;;;;;;0.00;0.00;;;;;14.01;57.79;100930.34;4998711;28;45945;-71
2023/01/11 05:32:22;;;;;;;;;0.00;0.00;;;;;14.00;57.84;100933.81;4998827;28;45325;-71
2023/01/11 05:34:48;;;;;;;;;0.67;0.00;;;;;14.01;57.79;100946.09;4999150;28;45277;-72
2023/01/11 05:37:13;;;;;;;;;0.00;0.00;;;;;14.05;57.43;100941.81;4999275;28;45371;-71
2023/01/11 05:39:39;;;;;;;;;0.00;0.00;;;;;13.86;57.62;100930.88;4998656;28;46010;-71
2023/01/11 05:42:04;;;;;;;;;0.00;0.00;;;;;14.05;57.84;100960.19;4998611;28;45492;-71
2023/01/11 05:47:14;;;;;;;;;0.67;0.67;;;;;14.05;57.95;100978.59;4998737;28;45446;-71
2023/01/11 05:49:39;;;;;;;;;1.00;0.00;;;;;14.03;58.13;100973.28;4998415;28;45995;-71
2023/01/11 05:52:05;;;;;;;;;0.00;0.00;;;;;14.03;58.15;100983.81;4998681;28;45721;-71
2023/01/11 05:54:30;;;;;;;;;0.33;0.00;;;;;14.04;58.10;100998.69;4998644;28;45490;-71
2023/01/11 05:56:56;;;;;;;;;0.00;0.00;;;;;13.90;58.20;100979.97;4998562;28;45583;-72
2023/01/11 05:59:22;;;;;;;;;0.00;0.00;;;;;14.04;58.44;101003.06;4998363;28;45431;-71
2023/01/11 06:01:48;;;;;;;;;0.00;0.00;;;;;14.06;58.16;101017.13;4998321;28;45242;-71
2023/01/11 06:04:14;;;;;;;;;0.00;0.00;;;;;14.06;58.39;101028.50;4998377;28;45595;-71
2023/01/11 06:06:39;;;;;;;;;0.00;0.00;;;;;14.08;58.05;101044.31;4996715;28;45403;-70
2023/01/11 06:09:05;;;;;;;;;0.33;0.00;;;;;14.09;58.21;101077.63;4997672;28;45905;-70
2023/01/11 06:11:30;;;;;;;;;0.00;0.00;;;;;13.94;58.26;101067.63;4997213;28;45442;-71
2023/01/11 06:13:56;;;;;;;;;1.00;0.00;;;;;14.06;59.05;101104.69;4997480;28;45174;-70
2023/01/11 06:16:22;;;;;;;;;1.00;1.00;;;;;14.00;58.71;101098.41;4997476;28;45490;-70
2023/01/11 06:18:50;;;;;;;;;0.00;0.00;;;;;14.04;61.80;101108.16;4996971;28;45985;-70
2023/01/11 06:21:19;;;;;;;;;0.67;0.67;;;;;14.06;63.68;101116.94;4992164;28;45464;-70
2023/01/11 06:23:47;;;;;;;;;1.00;1.00;;;;;13.78;66.26;101084.75;4997209;28;45520;-71
2023/01/11 06:26:15;;;;;;;;;1.00;0.00;;;;;13.96;67.22;101126.34;4997323;28;45610;-71
2023/01/11 06:28:41;;;;;;;;;1.00;0.33;;;;;13.95;69.23;101129.81;4996849;28;45374;-71
2023/01/11 06:31:07;;;;;;;;;1.00;0.67;;;;;13.97;69.03;101132.50;4997354;28;45323;-71
2023/01/11 06:33:36;;;;;;;;;1.00;1.00;;;;;13.98;69.25;101132.50;4996140;28;45567;-70
2023/01/11 06:36:10;;;;;;;;;1.00;0.00;;;;;14.00;69.04;101129.94;4997048;28;45481;-69
2023/01/11 06:38:36;;;;;;;;;0.33;0.00;;;;;13.89;70.20;101122.69;4994456;28;46856;-69
2023/01/11 06:41:04;;;;;;;;;1.00;1.00;;;;;13.98;71.06;101144.78;4996894;28;45450;-70
2023/01/11 06:43:31;;;;;;;;;0.33;0.33;;;;;13.93;72.14;101157.78;4996901;28;45384;-70
2023/01/11 06:45:57;;;;;;;;;0.33;0.00;;;;;13.93;72.29;101157.78;4997329;28;45201;-71
2023/01/11 06:48:23;;;;;;;;;0.67;0.67;;;;;13.93;72.88;101163.03;4996686;28;45497;-70
2023/01/11 06:50:51;;;;;;;;;1.00;1.00;;;;;13.91;73.90;101167.38;4996581;28;45241;-70
2023/01/11 06:53:17;;;;;;;;;2.00;1.00;;;;;13.81;75.95;101167.97;4994560;28;45490;-69
2023/01/11 06:55:42;;;;;;;;;1.67;1.00;;;;;13.81;74.21;101186.38;4996692;28;45508;-72
2023/01/11 06:58:08;;;;;;;;;1.00;0.67;;;;;13.80;73.10;101182.81;4996740;28;45415;-71
2023/01/11 07:00:33;;;;;;;;;0.67;0.00;;;;;13.48;74.97;101156.56;4996448;28;45568;-70
2023/01/11 07:03:04;;;;;;;;;1.00;0.00;;;;;13.62;75.09;101182.34;4996660;28;45417;-70
2023/01/11 07:05:32;;;;;;;;;1.00;0.00;;;;;13.66;74.70;101192.06;4996682;28;45496;-71
2023/01/11 07:07:58;;;;;;;;;0.00;0.00;;;;;13.42;77.41;101197.53;4996295;28;45453;-71
2023/01/11 07:10:24;;;;;;;;;0.00;0.00;;;;;13.30;77.66;101191.06;4996536;28;45526;-70
2023/01/11 07:12:50;;;;;;;;;0.00;0.00;;;;;13.20;76.06;101182.84;4996529;28;45368;-71
2023/01/11 07:15:16;;;;;;;;;1.00;0.00;;;;;13.41;76.10;101215.00;4996905;28;45412;-71
2023/01/11 07:17:41;;;;;;;;;0.00;0.00;;;;;13.43;76.76;101246.53;4996450;28;45435;-71
2023/01/11 07:20:08;;;;;;;;;0.00;0.00;;;;;13.40;75.28;101249.06;4996592;28;45495;-70
2023/01/11 07:22:35;;;;;;;;;0.00;0.00;;;;;13.28;75.25;101255.69;4996347;28;45604;-70
2023/01/11 07:25:00;;;;;;;;;0.00;0.00;;;;;13.23;73.99;101262.56;4996391;28;45517;-71
2023/01/11 07:27:26;;;;;;;;;0.00;0.00;;;;;13.16;73.95;101273.69;4996560;28;45502;-70
2023/01/11 07:29:52;;;;;;;;;0.00;0.00;;;;;13.08;74.05;101273.44;4996693;28;45926;-71
2023/01/11 07:32:18;;;;;;;;;8.67;8.33;;;;;13.06;73.81;101284.75;4997286;28;45496;-71
2023/01/11 07:34:44;;;;;;;;;0.33;0.00;;;;;13.05;73.52;101269.81;4997502;28;45300;-71
2023/01/11 07:37:10;;;;;;;;;0.00;0.00;;;;;13.06;73.55;101282.13;4997509;28;45874;-71
2023/01/11 07:39:35;;;;;;;;;0.00;0.00;;;;;13.05;73.27;101289.09;4998650;28;45186;-72
2023/01/11 07:44:47;;;;;;;;;0.00;0.00;;;;;13.07;73.13;101287.41;4997456;28;45478;-71
2023/01/11 07:47:12;;;;;;;;;8.25;8.00;;;;;13.12;73.29;101296.31;5000223;28;45490;-72
2023/01/11 07:49:37;;;;;;;;;4.33;3.67;;;;;13.16;72.58;101299.91;5000207;28;45327;-72
2023/01/11 07:52:03;;;;;;;;;4.00;4.00;;;;;13.18;73.26;101306.09;5000315;28;45477;-72
2023/01/11 07:54:29;;;;;;;;;22.25;21.00;;;;;13.19;73.40;101310.53;5000350;28;45276;-72
2023/01/11 07:56:55;;;;;;;;;27.00;25.50;;;;;13.22;72.73;101307.97;4999777;28;45164;-72
2023/01/11 07:59:21;;;;;;;;;31.25;29.75;;;;;12.99;72.81;101278.41;5000174;28;45465;-71
2023/01/11 08:01:47;;;;;;;;;18.50;16.25;;;;;13.23;73.08;101316.72;4999989;28;45609;-71
2023/01/11 08:04:13;;;;;;;;;15.50;12.25;;;;;13.25;72.90;101334.34;4999802;28;45244;-70
2023/01/11 08:06:39;;;;;;;;;8.00;7.00;;;;;13.25;73.27;101320.28;4999370;28;45348;-69
2023/01/11 08:09:06;;;;;;;;;7.00;7.00;;;;;13.25;73.36;101325.53;4999459;28;45452;-71
2023/01/11 08:17:00;;;;;;;;;4.00;3.00;;;;;13.01;74.03;101313.47;4997344;28;45323;-71
2023/01/11 08:19:25;;;;;;;;;44.50;36.50;;;;;13.21;73.43;101334.16;4999095;28;45430;-71
2023/01/11 08:21:51;;;;;;;;;48.25;38.50;;;;;13.25;73.99;101365.81;4999170;28;45367;-71
2023/01/11 08:24:16;;;;;;;;;39.75;33.50;;;;;13.26;74.37;101379.81;4999165;28;45331;-72
2023/01/11 08:26:42;;;;;;;;;16.75;15.00;;;;;13.23;74.32;101391.13;4999070;28;45559;-71
2023/01/11 08:29:08;;;;;;;;;43.50;37.75;;;;;13.26;73.91;101390.31;4998980;28;45498;-71
2023/01/11 08:31:33;;;;;;;;;13.25;11.75;;;;;13.24;74.49;101387.63;4996012;28;45446;-72
2023/01/11 08:33:59;;;;;;;;;23.50;22.75;;;;;13.22;73.77;101394.56;4999708;28;45509;-72
2023/01/11 08:36:26;;;;;;;;;11.00;10.00;;;;;13.22;73.86;101399.81;4999521;28;45589;-71
2023/01/11 08:38:58;;;;;;;;;1.00;1.00;;;;;13.08;73.71;101378.38;4999374;28;45537;-71
2023/01/11 08:41:24;;;;;;;;;16.75;15.50;;;;;13.24;73.49;101400.75;4999534;28;45257;-71
2023/01/11 08:43:49;;;;;;;;;8.67;7.33;;;;;13.23;73.29;101404.25;4998349;28;45260;-71
2023/01/11 08:46:16;;;;;;;;;39.75;34.75;;;;;13.25;73.46;101415.66;4999793;28;46109;-72
2023/01/11 08:48:42;;;;;;;;;32.75;29.25;;;;;13.16;72.99;101394.38;4999672;28;45330;-71
2023/01/11 08:51:08;;;;;;;;;37.75;32.00;;;;;13.28;73.18;101401.75;4999396;28;45328;-72
2023/01/11 08:53:34;;;;;;;;;39.00;34.75;;;;;13.26;73.32;101406.06;4999563;28;45426;-72
2023/01/11 08:55:59;;;;;;;;;24.75;22.50;;;;;13.25;73.46;101413.06;4998812;28;46151;-72
2023/01/11 08:58:24;;;;;;;;;35.50;31.50;;;;;13.24;73.59;101415.63;4998528;28;45283;-71
2023/01/11 09:00:50;;;;;;;;;14.25;12.00;;;;;13.07;73.65;101388.81;4999595;28;45285;-71
2023/01/11 09:03:17;;;;;;;;;16.00;15.25;;;;;13.23;73.84;101426.94;4999773;28;45166;-71
2023/01/11 09:05:44;;;;;;;;;19.75;17.75;;;;;13.18;73.52;101425.91;4999146;28;45236;-71
2023/01/11 09:08:10;;;;;;;;;36.50;33.75;;;;;13.25;73.59;101439.28;4998804;28;45340;-71
2023/01/11 09:10:36;;;;;;;;;11.25;9.75;;;;;13.27;73.16;101442.84;4998955;28;45513;-71
2023/01/11 09:13:02;;;;;;;;;13.00;11.75;;;;;13.29;73.88;101449.06;4999146;28;45266;-72
2023/01/11 09:15:29;;;;;;;;;30.50;25.25;;;;;13.25;73.79;101444.53;4998748;28;46123;-71
2023/01/11 09:17:54;;;;;;;;;33.75;30.00;;;;;13.28;73.42;101438.50;4998966;28;45485;-71
2023/01/11 09:20:21;;;;;;;;;15.25;12.00;;;;;13.32;73.34;101443.03;4999122;28;45367;-71
2023/01/11 09:22:51;;;;;;;;;50.25;39.75;;;;;13.32;73.26;101445.66;4999383;28;45300;-72
2023/01/11 09:25:17;;;;;;;;;14.25;13.25;;;;;13.33;72.96;101445.72;4998935;28;45281;-71
2023/01/11 09:27:48;;;;;;;;;20.75;19.50;;;;;13.36;72.29;101446.66;4998889;28;45609;-71
2023/01/11 09:30:17;;;;;;;;;10.67;10.67;;;;;13.28;72.25;101443.72;4999114;28;45217;-71
2023/01/11 09:32:44;;;;;;;;;20.75;18.00;;;;;13.42;72.12;101463.47;4998859;28;45440;-71
2023/01/11 09:35:10;;;;;;;;;17.50;15.25;;;;;13.45;71.57;101470.56;4998542;28;45951;-72
2023/01/11 09:37:40;;;;;;;;;20.50;17.00;;;;;13.51;71.51;101470.78;4998569;28;45370;-72
2023/01/11 09:40:13;;;;;;;;;40.00;34.25;;;;;13.57;71.43;101484.09;4998980;28;45557;-71
2023/01/11 09:42:39;;;;;;;;;15.00;14.25;;;;;13.40;71.04;101443.28;4998878;28;45348;-71
2023/01/11 09:45:14;;;;;;;;;19.00;18.00;;;;;13.63;70.77;101481.69;4998506;28;45459;-71
2023/01/11 09:47:49;;;;;;;;;18.75;18.25;;;;;13.63;70.58;101481.69;4998495;28;45355;-71
2023/01/11 09:50:27;;;;;;;;;20.25;19.00;;;;;13.61;71.23;101486.00;4998852;28;45342;-72
2023/01/11 09:52:57;;;;;;;;;27.25;23.50;;;;;13.60;70.72;101492.06;4998521;28;45524;-71
2023/01/11 09:55:51;;;;;;;;;10.00;10.00;;;;;13.59;70.39;101497.25;4998281;28;46322;-71
2023/01/11 09:58:54;;;;;;;;;27.00;21.50;;;;;13.59;70.41;101506.06;4998344;28;45226;-72
2023/01/11 10:01:35;;;;;;;;;7.33;7.33;;;;;13.60;69.97;101510.44;4998654;28;45598;-71
2023/01/11 10:04:24;;;;;;;;;30.25;24.50;;;;;13.61;70.08;101508.69;4998276;28;45423;-72
2023/01/11 10:07:02;;;;;;;;;24.25;22.00;;;;;13.65;69.78;101513.25;4997634;28;45447;-71
2023/01/11 10:09:38;;;;;;;;;54.50;44.75;;;;;13.68;69.96;101516.84;4997049;28;45500;-71
2023/01/11 10:12:10;;;;;;;;;21.50;18.00;;;;;13.73;69.46;101517.91;4997829;28;45202;-71
2023/01/11 10:14:51;;;;;;;;;14.50;13.00;;;;;13.76;69.50;101521.47;4997976;28;45518;-71
2023/01/11 10:17:39;;;;;;;;;6.67;6.67;;;;;13.77;69.54;101523.22;4998007;28;46111;-71
2023/01/11 10:20:27;;;;;;;;;4.67;4.00;;;;;13.75;69.42;101525.81;4997616;28;45511;-70
2023/01/11 10:23:05;;;;;;;;;3.67;3.00;;;;;13.71;69.77;101540.59;4997721;28;45494;-71
2023/01/11 10:26:00;;;;;;;;;3.67;3.33;;;;;13.68;70.14;101542.22;4998003;28;45440;-71
2023/01/11 10:28:34;;;;;;;;;11.00;10.00;;;;;13.62;70.30;101542.00;4997683;28;46004;-71
2023/01/11 10:31:22;;;;;;;;;4.00;3.00;;;;;13.66;69.77;101536.03;4997447;28;45474;-71
2023/01/11 10:43:02;;;;;;;;;5.00;5.00;;;;;13.68;69.63;101508.97;4997718;28;45260;-71
2023/01/11 10:45:38;;;;;;;;;3.67;3.00;;;;;13.82;69.82;101530.41;4997539;28;45301;-72
2023/01/11 10:48:11;;;;;;;;;2.00;2.00;;;;;14.00;70.08;101548.50;4997745;28;45428;-71
2023/01/11 10:50:56;;;;;;;;;3.67;3.00;;;;;14.02;70.39;101559.06;4997352;28;45411;-71
2023/01/11 10:53:42;;;;;;;;;18.00;16.75;;;;;14.11;69.65;101552.38;4997641;28;45371;-71
2023/01/11 10:56:46;;;;;;;;;11.00;10.00;;;;;14.26;68.92;101559.84;4997226;28;45498;-71
2023/01/11 10:59:47;;;;;;;;;7.00;7.00;;;;;14.32;68.65;101552.16;4997619;28;45463;-70
2023/01/11 11:02:36;;;;;;;;;2.00;1.00;;;;;14.37;67.59;101556.66;4997303;28;46125;-71
2023/01/11 11:05:10;;;;;;;;;2.00;1.67;;;;;14.41;68.13;101554.16;4997113;28;45379;-71
2023/01/11 11:07:54;;;;;;;;;3.00;2.00;;;;;14.53;68.18;101556.28;4997407;28;46221;-71
2023/01/11 11:10:52;;;;;;;;;1.00;0.00;;;;;14.68;68.31;101553.22;4997950;28;45318;-72
2023/01/11 11:13:30;;;;;;;;;3.67;3.00;;;;;14.85;67.76;101543.22;4994922;28;45618;-71
2023/01/11 11:16:06;;;;;;;;;1.33;1.33;;;;;14.79;67.29;101509.72;4997486;28;45486;-71
2023/01/11 11:18:32;;;;;;;;;6.67;6.00;;;;;15.12;67.01;101543.09;4997376;28;45333;-71
2023/01/11 11:21:08;;;;;;;;;3.33;3.33;;;;;14.72;66.58;101463.06;5001641;28;45389;-71
2023/01/11 11:23:36;;;;;;;;;4.00;4.00;;;;;15.32;66.56;101544.53;5003573;28;45465;-71
2023/01/11 11:26:05;;;;;;;;;2.67;1.00;;;;;15.42;65.89;101547.38;5003237;28;45542;-71
2023/01/11 11:28:32;;;;;;;;;2.33;1.00;;;;;15.57;65.46;101545.13;5003738;28;45547;-71
2023/01/11 11:31:01;;;;;;;;;2.00;2.00;;;;;15.68;65.43;101537.53;5003672;28;45626;-71
2023/01/11 11:33:37;;;;;;;;;2.33;2.33;;;;;15.93;64.96;101548.69;5003343;28;46259;-71
2023/01/11 11:36:08;;;;;;;;;3.00;3.00;;;;;16.08;63.81;101535.88;5003526;28;45365;-71
2023/01/11 11:38:36;;;;;;;;;3.67;2.00;;;;;16.22;63.67;101541.47;5003615;28;45426;-71
2023/01/11 11:41:09;;;;;;;;;4.00;3.00;;;;;16.24;63.35;101534.50;5003716;28;45273;-71
2023/01/11 11:43:39;;;;;;;;;11.67;11.67;;;;;16.28;63.11;101520.50;5003089;28;45315;-71
2023/01/11 11:46:22;;;;;;;;;9.67;9.00;;;;;16.19;63.39;101523.81;5003271;28;45363;-71
2023/01/11 11:49:17;;;;;;;;;4.67;3.00;;;;;16.25;63.19;101529.25;5003066;28;45364;-72
2023/01/11 11:51:45;;;;;;;;;1.67;1.00;;;;;16.21;60.66;101523.84;5001493;28;45533;-71
2023/01/11 11:54:32;;;;;;;;;6.33;5.00;;;;;16.22;63.22;101529.16;5003215;28;46125;-71
2023/01/11 11:57:11;;;;;;;;;6.00;4.00;;;;;16.28;62.51;101502.94;5001888;28;45513;-71
2023/01/11 11:59:38;;;;;;;;;2.00;1.00;;;;;16.33;63.33;101495.13;5003319;28;45435;-71
2023/01/11 12:02:16;;;;;;;;;5.00;1.00;;;;;16.40;62.54;101504.06;5003460;28;45386;-71
2023/01/11 12:04:47;;;;;;;;;2.00;1.00;;;;;16.67;62.46;101519.56;5003204;28;45960;-72
2023/01/11 12:07:20;;;;;;;;;1.00;1.00;;;;;16.93;62.30;101535.97;5003324;28;45384;-72
2023/01/11 12:10:15;;;;;;;;;4.33;3.00;;;;;17.07;61.78;101547.69;5003218;28;45320;-72
2023/01/11 12:12:50;;;;;;;;;7.00;5.00;;;;;17.03;60.85;101547.59;5003290;28;45453;-71